createdAt,value
2024-02-19T00:00:55.839Z,13.63
2024-02-19T00:03:22.560Z,12.50
2024-02-19T00:05:51.822Z,13.80
2024-02-19T00:08:18.348Z,11.73
2024-02-19T00:10:44.892Z,11.68
2024-02-19T00:13:11.410Z,11.55
2024-02-19T00:15:37.826Z,11.63
2024-02-19T00:18:04.569Z,11.88
2024-02-19T00:20:30.992Z,11.43
2024-02-19T00:22:57.371Z,9.30
2024-02-19T00:25:23.936Z,10.93
2024-02-19T00:27:50.444Z,11.43
2024-02-19T00:30:17.482Z,10.73
2024-02-19T00:32:44.014Z,11.02
2024-02-19T00:35:10.469Z,11.85
2024-02-19T00:37:36.888Z,8.63
2024-02-19T00:40:05.627Z,8.10
2024-02-19T00:42:32.039Z,8.60
2024-02-19T00:44:59.169Z,5.80
2024-02-19T00:47:25.687Z,6.85
2024-02-19T00:49:52.342Z,7.55
2024-02-19T00:52:19.041Z,6.03
2024-02-19T00:54:45.835Z,6.00
2024-02-19T00:57:12.314Z,7.13
2024-02-19T00:59:38.704Z,7.18
2024-02-19T01:02:05.189Z,10.48
2024-02-19T01:04:31.686Z,10.35
2024-02-19T01:06:58.206Z,11.80
2024-02-19T01:09:24.585Z,9.73
2024-02-19T01:11:50.994Z,9.20
2024-02-19T01:14:17.405Z,6.72
2024-02-19T01:16:44.224Z,4.15
2024-02-19T01:19:10.755Z,4.13
2024-02-19T01:21:37.908Z,3.80
2024-02-19T01:24:04.379Z,5.15
2024-02-19T01:26:31.416Z,5.63
2024-02-19T01:28:57.827Z,5.75
2024-02-19T01:31:24.397Z,4.78
2024-02-19T01:33:50.862Z,4.97
2024-02-19T01:36:17.352Z,5.72
2024-02-19T01:38:43.777Z,6.20
2024-02-19T01:41:10.165Z,5.22
2024-02-19T01:43:37.675Z,7.85
2024-02-19T01:46:04.361Z,6.70
2024-02-19T01:48:30.906Z,8.80
2024-02-19T01:50:57.734Z,9.25
2024-02-19T01:53:25.032Z,11.52
2024-02-19T01:55:52.525Z,10.13
2024-02-19T01:58:19.356Z,9.73
2024-02-19T02:00:49.352Z,13.27
2024-02-19T02:03:21.768Z,9.35
2024-02-19T02:05:49.021Z,9.15
2024-02-19T02:08:15.962Z,8.38
2024-02-19T02:10:42.360Z,5.30
2024-02-19T02:13:09.766Z,8.63
2024-02-19T02:15:36.587Z,5.60
2024-02-19T02:18:03.230Z,7.88
2024-02-19T02:20:32.286Z,5.72
2024-02-19T02:22:59.305Z,5.75
2024-02-19T02:25:25.831Z,10.35
2024-02-19T02:27:52.309Z,6.53
2024-02-19T02:30:18.730Z,6.55
2024-02-19T02:32:45.238Z,5.60
2024-02-19T02:35:11.722Z,8.93
2024-02-19T02:37:38.097Z,6.40
2024-02-19T02:40:04.917Z,5.60
2024-02-19T02:42:31.616Z,6.10
2024-02-19T02:44:58.134Z,9.07
2024-02-19T02:47:24.516Z,8.27
2024-02-19T02:49:50.916Z,8.93
2024-02-19T02:52:17.400Z,7.22
2024-02-19T02:54:43.889Z,7.53
2024-02-19T02:57:10.267Z,6.65
2024-02-19T02:59:36.721Z,8.32
2024-02-19T03:02:03.235Z,5.55
2024-02-19T03:04:29.816Z,6.95
2024-02-19T03:06:56.366Z,5.32
2024-02-19T03:09:22.779Z,6.30
2024-02-19T03:11:49.168Z,6.45
2024-02-19T03:14:17.674Z,6.03
2024-02-19T03:16:44.046Z,5.45
2024-02-19T03:19:14.384Z,6.82
2024-02-19T03:21:43.980Z,6.93
2024-02-19T03:24:10.656Z,7.05
2024-02-19T03:26:41.260Z,3.92
2024-02-19T03:31:43.854Z,5.40
2024-02-19T03:34:11.327Z,2.92
2024-02-19T03:36:38.138Z,6.00
2024-02-19T03:39:05.681Z,8.68
2024-02-19T03:41:32.479Z,5.30
2024-02-19T03:43:59.813Z,7.10
2024-02-19T03:46:26.895Z,6.80
2024-02-19T03:48:55.109Z,5.38
2024-02-19T03:51:21.548Z,5.18
2024-02-19T03:53:47.910Z,5.25
2024-02-19T03:56:14.329Z,7.43
2024-02-19T03:58:41.330Z,3.38
2024-02-19T04:01:08.674Z,4.20
2024-02-19T04:03:35.516Z,2.80
2024-02-19T04:06:02.503Z,3.85
2024-02-19T04:08:28.898Z,3.97
2024-02-19T04:10:55.422Z,2.80
2024-02-19T04:13:21.859Z,3.17
2024-02-19T04:15:48.328Z,2.35
2024-02-19T04:18:14.817Z,4.90
2024-02-19T04:20:41.298Z,3.25
2024-02-19T04:23:07.675Z,2.00
2024-02-19T04:25:34.208Z,3.33
2024-02-19T04:28:00.775Z,3.13
2024-02-19T04:30:27.233Z,2.92
2024-02-19T04:32:54.126Z,2.50
2024-02-19T04:35:20.644Z,3.35
2024-02-19T04:37:47.098Z,3.40
2024-02-19T04:40:14.850Z,4.18
2024-02-19T04:42:41.455Z,3.47
2024-02-19T04:45:08.144Z,3.42
2024-02-19T04:47:34.603Z,4.97
2024-02-19T04:50:01.343Z,3.53
2024-02-19T04:52:27.932Z,2.70
2024-02-19T04:54:54.452Z,5.70
2024-02-19T04:57:21.271Z,4.68
2024-02-19T04:59:47.720Z,2.78
2024-02-19T05:02:14.129Z,3.13
2024-02-19T05:04:41.256Z,3.63
2024-02-19T05:07:07.797Z,2.67
2024-02-19T05:09:34.542Z,4.38
2024-02-19T05:12:00.988Z,6.13
2024-02-19T05:14:27.387Z,4.20
2024-02-19T05:16:56.020Z,3.35
2024-02-19T05:19:22.801Z,4.38
2024-02-19T05:21:49.804Z,3.08
2024-02-19T05:24:18.534Z,3.53
2024-02-19T05:26:45.180Z,2.33
2024-02-19T05:29:12.067Z,1.88
2024-02-19T05:31:39.710Z,2.40
2024-02-19T05:34:07.614Z,2.38
2024-02-19T05:36:34.651Z,3.95
2024-02-19T05:39:01.627Z,3.97
2024-02-19T05:41:28.389Z,5.43
2024-02-19T05:43:55.081Z,3.10
2024-02-19T05:46:21.602Z,7.18
2024-02-19T05:48:49.677Z,3.10
2024-02-19T05:51:16.398Z,4.03
2024-02-19T05:53:42.911Z,2.80
2024-02-19T05:56:10.320Z,3.30
2024-02-19T05:58:43.440Z,3.45
2024-02-19T06:01:10.193Z,6.15
2024-02-19T06:03:36.989Z,3.17
2024-02-19T06:06:04.350Z,2.55
2024-02-19T06:08:31.131Z,3.17
2024-02-19T06:10:58.735Z,3.75
2024-02-19T06:13:26.129Z,4.60
2024-02-19T06:15:52.864Z,2.58
2024-02-19T06:18:19.536Z,4.70
2024-02-19T06:20:48.422Z,3.35
2024-02-19T06:23:15.536Z,2.15
2024-02-19T06:25:43.507Z,2.75
2024-02-19T06:28:10.263Z,2.75
2024-02-19T06:30:36.805Z,1.38
2024-02-19T06:33:03.701Z,2.17
2024-02-19T06:35:30.279Z,2.15
2024-02-19T06:37:57.063Z,1.60
2024-02-19T06:40:23.706Z,1.35
2024-02-19T06:42:53.644Z,2.85
2024-02-19T06:45:21.196Z,3.83
2024-02-19T06:47:47.621Z,1.63
2024-02-19T06:50:14.101Z,1.60
2024-02-19T06:52:44.408Z,2.42
2024-02-19T06:55:10.934Z,3.92
2024-02-19T06:57:37.402Z,5.28
2024-02-19T07:00:04.171Z,3.80
2024-02-19T07:02:30.544Z,3.25
2024-02-19T07:04:57.287Z,1.38
2024-02-19T07:07:23.849Z,3.72
2024-02-19T07:09:52.309Z,1.73
2024-02-19T07:12:18.910Z,3.30
2024-02-19T07:14:45.294Z,2.35
2024-02-19T07:17:11.679Z,1.65
2024-02-19T07:19:38.139Z,2.58
2024-02-19T07:22:04.958Z,3.03
2024-02-19T07:24:33.908Z,2.20
2024-02-19T07:27:00.378Z,2.55
2024-02-19T07:29:27.316Z,4.00
2024-02-19T07:31:54.040Z,3.95
2024-02-19T07:34:20.663Z,4.03
2024-02-19T07:36:47.381Z,2.50
2024-02-19T07:39:15.031Z,4.05
2024-02-19T07:41:41.418Z,2.95
2024-02-19T07:44:07.971Z,5.47
2024-02-19T07:46:34.639Z,3.67
2024-02-19T07:49:01.276Z,3.70
2024-02-19T07:51:27.777Z,5.80
2024-02-19T07:53:54.144Z,8.07
2024-02-19T07:56:20.704Z,5.75
2024-02-19T07:58:47.109Z,6.70
2024-02-19T08:01:13.687Z,3.83
2024-02-19T08:03:40.234Z,6.15
2024-02-19T08:06:08.345Z,4.72
2024-02-19T08:08:34.851Z,3.90
2024-02-19T08:11:01.370Z,3.85
2024-02-19T08:13:28.008Z,8.32
2024-02-19T08:15:54.584Z,7.05
2024-02-19T08:18:21.908Z,5.47
2024-02-19T08:20:49.211Z,6.45
2024-02-19T08:23:15.647Z,5.88
2024-02-19T08:25:42.016Z,5.65
2024-02-19T08:28:08.416Z,5.82
2024-02-19T08:30:34.840Z,7.28
2024-02-19T08:33:01.377Z,4.38
2024-02-19T08:35:28.516Z,5.65
2024-02-19T08:37:56.859Z,6.28
2024-02-19T08:40:23.330Z,7.18
2024-02-19T08:42:51.226Z,5.07
2024-02-19T08:45:20.342Z,6.40
2024-02-19T08:47:48.736Z,6.88
2024-02-19T08:50:15.460Z,6.65
2024-02-19T08:52:42.109Z,6.72
2024-02-19T08:55:08.695Z,4.90
2024-02-19T08:57:35.185Z,4.82
2024-02-19T09:00:01.672Z,5.28
2024-02-19T09:02:28.356Z,4.75
2024-02-19T09:04:54.847Z,4.93
2024-02-19T09:07:21.440Z,4.85
2024-02-19T09:09:47.928Z,7.15
2024-02-19T09:12:14.672Z,3.65
2024-02-19T09:14:41.172Z,5.78
2024-02-19T09:17:08.350Z,6.78
2024-02-19T09:19:35.179Z,4.90
2024-02-19T09:22:03.380Z,3.38
2024-02-19T09:24:30.272Z,5.95
2024-02-19T09:26:56.692Z,5.43
2024-02-19T09:29:23.093Z,8.10
2024-02-19T09:31:49.581Z,5.70
2024-02-19T09:34:16.115Z,6.63
2024-02-19T09:36:46.971Z,6.45
2024-02-19T09:39:13.529Z,4.72
2024-02-19T09:41:40.654Z,9.48
2024-02-19T09:44:08.573Z,4.75
2024-02-19T09:46:36.508Z,6.45
2024-02-19T09:49:05.358Z,3.28
2024-02-19T09:51:40.877Z,6.07
2024-02-19T09:54:07.835Z,5.72
2024-02-19T09:56:35.948Z,10.23
2024-02-19T09:59:02.916Z,7.30
2024-02-19T10:01:29.502Z,7.03
2024-02-19T10:03:57.780Z,9.25
2024-02-19T10:06:33.699Z,13.00
2024-02-19T10:09:01.707Z,11.90
2024-02-19T10:11:28.341Z,9.68
2024-02-19T10:13:54.773Z,8.07
2024-02-19T10:16:21.299Z,8.57
2024-02-19T10:18:47.974Z,10.32
2024-02-19T10:21:14.403Z,7.90
2024-02-19T10:23:40.889Z,11.60
2024-02-19T10:26:08.690Z,9.38
2024-02-19T10:28:36.530Z,11.77
2024-02-19T10:31:03.089Z,5.43
2024-02-19T10:33:29.602Z,10.57
2024-02-19T10:35:56.423Z,13.88
2024-02-19T10:38:23.319Z,8.05
2024-02-19T10:40:49.885Z,10.82
2024-02-19T10:43:19.018Z,7.38
2024-02-19T10:45:48.357Z,9.90
2024-02-19T10:48:15.732Z,9.95
2024-02-19T10:50:42.174Z,11.90
2024-02-19T10:53:08.671Z,8.02
2024-02-19T10:55:49.656Z,7.25
2024-02-19T10:58:26.217Z,16.58
2024-02-19T11:00:54.543Z,6.38
2024-02-19T11:03:22.074Z,10.25
2024-02-19T11:05:48.590Z,13.30
2024-02-19T11:08:22.973Z,12.43
2024-02-19T11:10:51.020Z,15.55
2024-02-19T11:13:23.209Z,13.93
2024-02-19T11:15:49.909Z,8.32
2024-02-19T11:18:18.276Z,10.10
2024-02-19T11:20:45.933Z,10.10
2024-02-19T11:23:12.981Z,11.23
2024-02-19T11:25:40.307Z,13.07
2024-02-19T11:28:07.550Z,13.20
2024-02-19T11:30:34.010Z,19.13
2024-02-19T11:33:04.464Z,16.85
2024-02-19T11:35:34.519Z,8.50
2024-02-19T11:38:03.921Z,12.40
2024-02-19T11:40:33.552Z,11.93
2024-02-19T11:43:02.114Z,12.85
2024-02-19T11:45:30.195Z,10.70
2024-02-19T11:47:57.826Z,14.48
2024-02-19T11:50:31.228Z,12.80
2024-02-19T11:53:01.528Z,10.40
2024-02-19T11:55:31.653Z,9.73
2024-02-19T11:58:01.798Z,18.80
2024-02-19T12:00:32.688Z,9.52
2024-02-19T12:03:00.051Z,9.00
2024-02-19T12:05:27.703Z,10.55
2024-02-19T12:07:54.440Z,7.35
2024-02-19T12:10:20.905Z,8.05
2024-02-19T12:12:47.952Z,8.13
2024-02-19T12:15:20.382Z,7.13
2024-02-19T12:17:49.581Z,12.15
2024-02-19T12:20:16.594Z,5.43
2024-02-19T12:22:43.346Z,6.55
2024-02-19T12:25:12.619Z,9.50
2024-02-19T12:27:39.152Z,8.00
2024-02-19T12:30:06.568Z,8.75
2024-02-19T12:32:33.439Z,9.80
2024-02-19T12:35:00.587Z,9.18
2024-02-19T12:37:29.943Z,7.35
2024-02-19T12:39:56.889Z,10.02
2024-02-19T12:42:23.388Z,7.88
2024-02-19T12:44:49.745Z,6.90
2024-02-19T12:47:16.217Z,6.40
2024-02-19T12:49:42.809Z,12.65
2024-02-19T12:52:11.101Z,8.38
2024-02-19T12:54:37.575Z,8.27
2024-02-19T12:57:06.889Z,6.50
2024-02-19T12:59:33.279Z,8.27
2024-02-19T13:01:59.817Z,11.32
2024-02-19T13:04:27.576Z,9.85
2024-02-19T13:06:57.016Z,9.25
2024-02-19T13:09:23.662Z,11.35
2024-02-19T13:11:50.146Z,12.85
2024-02-19T13:14:16.542Z,10.48
2024-02-19T13:16:43.503Z,9.32
2024-02-19T13:19:11.166Z,7.93
2024-02-19T13:21:37.689Z,9.93
2024-02-19T13:24:04.365Z,8.07
2024-02-19T13:26:30.751Z,10.23
2024-02-19T13:28:57.249Z,9.88
2024-02-19T13:31:23.979Z,11.38
2024-02-19T13:33:50.524Z,8.90
2024-02-19T13:36:17.700Z,10.65
2024-02-19T13:38:44.472Z,11.68
2024-02-19T13:41:13.833Z,12.52
2024-02-19T13:43:41.959Z,13.65
2024-02-19T13:46:08.851Z,10.35
2024-02-19T13:48:35.888Z,12.75
2024-02-19T13:51:02.676Z,15.45
2024-02-19T13:53:30.556Z,12.13
2024-02-19T13:56:00.646Z,8.68
2024-02-19T13:58:28.828Z,8.57
2024-02-19T14:00:57.666Z,10.60
2024-02-19T14:03:25.113Z,6.68
2024-02-19T14:05:51.993Z,8.98
2024-02-19T14:08:20.273Z,9.55
2024-02-19T14:10:48.421Z,7.55
2024-02-19T14:13:16.493Z,5.82
2024-02-19T14:15:42.999Z,4.63
2024-02-19T14:18:09.480Z,5.47
2024-02-19T14:20:35.972Z,5.65
2024-02-19T14:23:03.472Z,5.47
2024-02-19T14:25:30.888Z,6.65
2024-02-19T14:27:57.920Z,5.05
2024-02-19T14:30:24.316Z,7.57
2024-02-19T14:32:50.773Z,6.15
2024-02-19T14:35:17.466Z,6.22
2024-02-19T14:37:45.025Z,4.72
2024-02-19T14:40:14.850Z,4.10
2024-02-19T14:42:42.453Z,3.58
2024-02-19T14:45:09.362Z,3.42
2024-02-19T14:47:38.199Z,6.80
2024-02-19T14:50:06.137Z,5.82
2024-02-19T14:52:34.151Z,6.13
2024-02-19T14:55:02.193Z,4.45
2024-02-19T14:57:30.048Z,12.55
2024-02-19T14:59:56.427Z,3.95
2024-02-19T15:02:23.256Z,7.85
2024-02-19T15:04:49.902Z,4.85
2024-02-19T15:07:16.493Z,8.77
2024-02-19T15:09:43.352Z,5.63
2024-02-19T15:12:10.376Z,4.13
2024-02-19T15:14:36.810Z,6.03
2024-02-19T15:17:04.250Z,8.20
2024-02-19T15:19:30.702Z,7.93
2024-02-19T15:21:57.196Z,7.13
2024-02-19T15:24:23.575Z,4.95
2024-02-19T15:26:50.405Z,4.85
2024-02-19T15:29:18.203Z,12.27
2024-02-19T15:31:44.616Z,6.22
2024-02-19T15:34:11.056Z,9.05
2024-02-19T15:36:37.557Z,6.50
2024-02-19T15:39:04.009Z,6.95
2024-02-19T15:41:32.656Z,6.68
2024-02-19T15:43:59.944Z,3.97
2024-02-19T15:46:26.641Z,3.83
2024-02-19T15:48:53.117Z,6.07
2024-02-19T15:51:19.550Z,6.90
2024-02-19T15:53:46.012Z,7.00
2024-02-19T15:56:12.416Z,7.75
2024-02-19T15:58:40.147Z,6.75
2024-02-19T16:01:07.696Z,8.57
2024-02-19T16:03:34.262Z,6.22
2024-02-19T16:06:01.291Z,7.70
2024-02-19T16:08:33.734Z,5.05
2024-02-19T16:11:04.468Z,4.32
2024-02-19T16:13:32.407Z,6.22
2024-02-19T16:15:59.751Z,7.93
2024-02-19T16:18:27.267Z,5.68
2024-02-19T16:20:53.740Z,7.82
2024-02-19T16:23:20.145Z,7.47
2024-02-19T16:25:46.653Z,10.43
2024-02-19T16:28:13.472Z,10.55
2024-02-19T16:30:39.856Z,10.82
2024-02-19T16:33:06.392Z,10.63
2024-02-19T16:35:32.900Z,6.50
2024-02-19T16:37:59.344Z,9.63
2024-02-19T16:40:26.553Z,7.43
2024-02-19T16:42:54.037Z,10.65
2024-02-19T16:45:20.623Z,10.82
2024-02-19T16:47:47.058Z,13.50
2024-02-19T16:50:13.491Z,10.98
2024-02-19T16:52:39.922Z,10.05
2024-02-19T16:55:09.519Z,10.55
2024-02-19T16:57:36.178Z,11.57
2024-02-19T17:00:04.268Z,12.75
2024-02-19T17:02:31.037Z,11.60
2024-02-19T17:04:57.512Z,8.45
2024-02-19T17:07:24.396Z,11.88
2024-02-19T17:09:51.116Z,8.60
2024-02-19T17:12:17.593Z,11.38
2024-02-19T17:14:45.857Z,12.70
2024-02-19T17:17:12.791Z,10.73
2024-02-19T17:19:39.328Z,11.93
2024-02-19T17:22:06.044Z,15.77
2024-02-19T17:24:37.776Z,10.80
2024-02-19T17:27:04.687Z,13.57
2024-02-19T17:29:31.158Z,14.32
2024-02-19T17:31:57.870Z,13.55
2024-02-19T17:34:28.082Z,18.63
2024-02-19T17:36:54.751Z,17.52
2024-02-19T17:39:24.784Z,15.73
2024-02-19T17:41:51.182Z,16.60
2024-02-19T17:44:17.674Z,14.13
2024-02-19T17:46:44.230Z,16.70
2024-02-19T17:49:14.358Z,16.52
2024-02-19T17:51:41.271Z,22.58
2024-02-19T17:54:10.803Z,19.88
2024-02-19T17:56:40.743Z,17.65
2024-02-19T17:59:12.364Z,22.77
2024-02-19T18:01:39.772Z,22.38
2024-02-19T18:04:06.494Z,18.67
2024-02-19T18:06:35.183Z,18.98
2024-02-19T18:09:03.947Z,15.27
2024-02-19T18:11:30.678Z,17.30
2024-02-19T18:13:57.566Z,14.68
2024-02-19T18:16:24.003Z,18.52
2024-02-19T18:18:50.568Z,16.08
2024-02-19T18:21:21.426Z,19.35
2024-02-19T18:23:48.489Z,17.83
2024-02-19T18:26:15.016Z,20.23
2024-02-19T18:28:41.424Z,22.40
2024-02-19T18:31:11.777Z,14.90
2024-02-19T18:33:38.522Z,12.57
2024-02-19T18:36:06.045Z,15.15
2024-02-19T18:38:34.488Z,16.65
2024-02-19T18:41:03.462Z,11.32
2024-02-19T18:43:30.441Z,17.17
2024-02-19T18:45:56.956Z,15.23
2024-02-19T18:48:24.288Z,20.73
2024-02-19T18:50:51.304Z,12.38
2024-02-19T18:53:17.792Z,10.45
2024-02-19T18:55:45.140Z,14.75
2024-02-19T18:58:11.574Z,12.90
2024-02-19T19:00:38.063Z,17.25
2024-02-19T19:03:04.585Z,12.25
2024-02-19T19:05:31.603Z,9.75
2024-02-19T19:07:59.002Z,10.00
2024-02-19T19:10:25.786Z,12.32
2024-02-19T19:12:52.364Z,8.57
2024-02-19T19:15:18.845Z,11.32
2024-02-19T19:17:46.168Z,11.75
2024-02-19T19:20:12.917Z,12.90
2024-02-19T19:22:39.993Z,12.23
2024-02-19T19:25:07.999Z,11.25
2024-02-19T19:27:34.876Z,13.00
2024-02-19T19:30:01.395Z,11.68
2024-02-19T19:32:30.067Z,11.73
2024-02-19T19:34:57.122Z,11.07
2024-02-19T19:37:25.550Z,10.95
2024-02-19T19:39:52.342Z,9.70
2024-02-19T19:42:19.929Z,12.38
2024-02-19T19:44:46.376Z,13.35
2024-02-19T19:47:12.808Z,11.02
2024-02-19T19:49:39.284Z,13.18
2024-02-19T19:52:05.840Z,12.90
2024-02-19T19:54:32.253Z,12.80
2024-02-19T19:56:58.693Z,11.07
2024-02-19T19:59:27.288Z,13.52
2024-02-19T20:01:53.868Z,13.13
2024-02-19T20:04:20.852Z,17.23
2024-02-19T20:06:47.572Z,12.02
2024-02-19T20:09:14.178Z,16.67
2024-02-19T20:11:40.696Z,17.50
2024-02-19T20:14:07.117Z,15.80
2024-02-19T20:16:36.546Z,15.00
2024-02-19T20:19:03.017Z,16.63
2024-02-19T20:21:29.434Z,16.55
2024-02-19T20:23:56.097Z,19.65
2024-02-19T20:26:22.547Z,17.25
2024-02-19T20:28:49.632Z,12.88
2024-02-19T20:31:16.054Z,19.02
2024-02-19T20:33:42.616Z,15.35
2024-02-19T20:36:09.305Z,13.60
2024-02-19T20:38:35.753Z,13.02
2024-02-19T20:41:03.938Z,15.70
2024-02-19T20:43:30.438Z,16.55
2024-02-19T20:45:56.986Z,15.50
2024-02-19T20:48:24.293Z,17.95
2024-02-19T20:50:50.863Z,13.52
2024-02-19T20:53:17.281Z,19.13
2024-02-19T20:55:43.755Z,15.25
2024-02-19T20:58:10.457Z,14.55
2024-02-19T21:00:36.984Z,17.88
2024-02-19T21:03:03.997Z,16.48
2024-02-19T21:05:30.429Z,14.15
2024-02-19T21:07:56.996Z,19.73
2024-02-19T21:10:23.716Z,15.90
2024-02-19T21:12:51.227Z,21.90
2024-02-19T21:15:17.840Z,15.98
2024-02-19T21:17:44.240Z,14.30
2024-02-19T21:20:12.129Z,16.42
2024-02-19T21:22:39.326Z,12.60
2024-02-19T21:25:06.400Z,14.80
2024-02-19T21:27:32.913Z,15.55
2024-02-19T21:29:59.349Z,15.18
2024-02-19T21:32:30.040Z,14.43
2024-02-19T21:34:58.222Z,18.63
2024-02-19T21:37:27.440Z,17.20
2024-02-19T21:39:53.945Z,15.07
2024-02-19T21:42:25.669Z,12.10
2024-02-19T21:44:52.500Z,16.33
2024-02-19T21:47:19.066Z,18.05
2024-02-19T21:49:46.368Z,13.88
2024-02-19T21:52:13.113Z,13.48
2024-02-19T21:54:39.809Z,15.25
2024-02-19T21:57:06.238Z,12.93
2024-02-19T21:59:32.667Z,16.88
2024-02-19T22:01:59.676Z,10.88
2024-02-19T22:04:26.336Z,13.63
2024-02-19T22:06:52.811Z,12.32
2024-02-19T22:09:19.207Z,16.20
2024-02-19T22:11:45.738Z,8.55
2024-02-19T22:14:12.895Z,10.48
2024-02-19T22:16:39.372Z,9.52
2024-02-19T22:19:05.808Z,6.03
2024-02-19T22:21:32.294Z,8.50
2024-02-19T22:23:58.740Z,7.18
2024-02-19T22:26:25.129Z,8.23
2024-02-19T22:28:52.345Z,7.30
2024-02-19T22:31:18.734Z,7.93
2024-02-19T22:33:45.242Z,7.15
2024-02-19T22:36:11.721Z,5.45
2024-02-19T22:38:38.983Z,4.57
2024-02-19T22:41:05.372Z,5.00
2024-02-19T22:43:31.782Z,4.63
2024-02-19T22:45:58.721Z,5.57
2024-02-19T22:48:25.608Z,3.40
2024-02-19T22:50:52.050Z,4.88
2024-02-19T22:53:19.413Z,3.45
2024-02-19T22:55:45.979Z,3.40
2024-02-19T22:58:17.768Z,4.47
2024-02-19T23:00:50.204Z,6.40
2024-02-19T23:03:16.863Z,4.07
2024-02-19T23:05:44.086Z,5.57
2024-02-19T23:08:10.888Z,6.63
2024-02-19T23:10:37.293Z,4.30
2024-02-19T23:13:04.667Z,5.15
2024-02-19T23:15:31.542Z,5.55
2024-02-19T23:17:58.512Z,5.35
2024-02-19T23:20:25.026Z,6.47
2024-02-19T23:22:51.541Z,5.70
2024-02-19T23:25:18.401Z,4.72
2024-02-19T23:27:44.860Z,5.57
2024-02-19T23:30:12.591Z,4.85
2024-02-19T23:32:39.183Z,5.65
2024-02-19T23:35:07.653Z,7.32
2024-02-19T23:37:34.226Z,6.90
2024-02-19T23:40:01.118Z,6.05
2024-02-19T23:42:27.812Z,4.90
2024-02-19T23:44:54.331Z,8.02
2024-02-19T23:47:20.989Z,7.00
2024-02-19T23:49:47.782Z,6.45
2024-02-19T23:52:14.637Z,11.95
2024-02-19T23:54:41.184Z,5.25
2024-02-19T23:57:08.589Z,9.50
2024-02-19T23:59:35.426Z,5.22
